sensor_id;sensor_type;location;lat;lon;timestamp;pressure;altitude;pressure_sealevel;temperature;humidity
41312;BME280;27061;41.648;24.568;2023-06-24T00:00:34;86289.75;;;19.39;72.03
41312;BME280;27061;41.648;24.568;2023-06-24T00:03:04;86287.81;;;19.35;71.63
41312;BME280;27061;41.648;24.568;2023-06-24T00:05:34;86293.25;;;19.39;71.74
41312;BME280;27061;41.648;24.568;2023-06-24T00:08:02;86301.00;;;19.39;72.19
41312;BME280;27061;41.648;24.568;2023-06-24T00:10:30;86281.88;;;19.25;72.18
41312;BME280;27061;41.648;24.568;2023-06-24T00:12:57;86261.06;;;19.18;72.10
41312;BME280;27061;41.648;24.568;2023-06-24T00:15:28;86216.00;;;18.84;71.82
41312;BME280;27061;41.648;24.568;2023-06-24T00:17:55;86228.50;;;18.87;71.92
41312;BME280;27061;41.648;24.568;2023-06-24T00:20:32;86299.78;;;19.34;72.47
41312;BME280;27061;41.648;24.568;2023-06-24T00:23:00;86238.97;;;18.89;72.41
41312;BME280;27061;41.648;24.568;2023-06-24T00:25:27;86255.38;;;19.01;72.72
41312;BME280;27061;41.648;24.568;2023-06-24T00:27:55;86283.69;;;19.14;72.89
41312;BME280;27061;41.648;24.568;2023-06-24T00:30:22;86288.19;;;19.25;72.80
41312;BME280;27061;41.648;24.568;2023-06-24T00:32:50;86287.50;;;19.25;72.86
41312;BME280;27061;41.648;24.568;2023-06-24T00:35:17;86293.09;;;19.25;71.82
41312;BME280;27061;41.648;24.568;2023-06-24T00:37:45;86287.31;;;19.29;71.88
41312;BME280;27061;41.648;24.568;2023-06-24T00:40:13;86232.00;;;18.88;72.12
41312;BME280;27061;41.648;24.568;2023-06-24T00:42:45;86289.91;;;19.16;72.58
41312;BME280;27061;41.648;24.568;2023-06-24T00:45:13;86242.69;;;18.83;72.47
41312;BME280;27061;41.648;24.568;2023-06-24T00:47:40;86246.69;;;18.88;71.87
41312;BME280;27061;41.648;24.568;2023-06-24T00:50:08;86282.88;;;19.17;72.13
41312;BME280;27061;41.648;24.568;2023-06-24T00:52:35;86238.03;;;18.76;72.61
41312;BME280;27061;41.648;24.568;2023-06-24T00:55:06;86275.25;;;19.14;72.12
41312;BME280;27061;41.648;24.568;2023-06-24T00:57:33;86260.28;;;19.00;72.04
41312;BME280;27061;41.648;24.568;2023-06-24T01:00:04;86237.47;;;18.92;72.07
41312;BME280;27061;41.648;24.568;2023-06-24T01:02:36;86244.50;;;18.91;72.26
41312;BME280;27061;41.648;24.568;2023-06-24T01:05:04;86264.34;;;19.06;72.04
41312;BME280;27061;41.648;24.568;2023-06-24T01:07:35;86268.28;;;19.13;71.52
41312;BME280;27061;41.648;24.568;2023-06-24T01:10:05;86268.28;;;19.13;71.76
41312;BME280;27061;41.648;24.568;2023-06-24T01:12:41;86270.41;;;19.12;71.92
41312;BME280;27061;41.648;24.568;2023-06-24T01:15:11;86264.25;;;19.08;71.93
41312;BME280;27061;41.648;24.568;2023-06-24T01:20:47;86203.59;;;18.58;72.15
41312;BME280;27061;41.648;24.568;2023-06-24T01:23:40;86262.75;;;19.11;71.23
41312;BME280;27061;41.648;24.568;2023-06-24T01:34:44;86261.97;;;18.93;72.17
41312;BME280;27061;41.648;24.568;2023-06-24T01:37:41;86216.28;;;18.55;72.61
41312;BME280;27061;41.648;24.568;2023-06-24T01:40:12;86248.03;;;18.71;72.71
41312;BME280;27061;41.648;24.568;2023-06-24T01:42:43;86256.03;;;18.83;72.77
41312;BME280;27061;41.648;24.568;2023-06-24T01:45:19;86222.56;;;18.56;72.19
41312;BME280;27061;41.648;24.568;2023-06-24T01:47:59;86259.28;;;18.89;70.96
41312;BME280;27061;41.648;24.568;2023-06-24T01:50:31;86251.16;;;18.81;71.36
41312;BME280;27061;41.648;24.568;2023-06-24T01:53:01;86254.09;;;18.77;72.09
41312;BME280;27061;41.648;24.568;2023-06-24T01:55:33;86200.09;;;18.37;72.67
41312;BME280;27061;41.648;24.568;2023-06-24T01:58:02;86195.41;;;18.32;72.78
41312;BME280;27061;41.648;24.568;2023-06-24T02:00:33;86214.56;;;18.44;72.41
41312;BME280;27061;41.648;24.568;2023-06-24T02:03:04;86231.28;;;18.48;73.12
41312;BME280;27061;41.648;24.568;2023-06-24T02:05:33;86207.28;;;18.32;73.55
41312;BME280;27061;41.648;24.568;2023-06-24T02:08:10;86254.00;;;18.60;73.76
41312;BME280;27061;41.648;24.568;2023-06-24T02:10:42;86243.63;;;18.55;73.57
41312;BME280;27061;41.648;24.568;2023-06-24T02:13:09;86244.94;;;18.37;74.33
41312;BME280;27061;41.648;24.568;2023-06-24T02:15:39;86266.00;;;18.57;74.21
41312;BME280;27061;41.648;24.568;2023-06-24T02:18:08;86241.06;;;18.49;73.37
41312;BME280;27061;41.648;24.568;2023-06-24T02:20:37;86243.22;;;18.46;73.85
41312;BME280;27061;41.648;24.568;2023-06-24T02:23:07;86265.22;;;18.60;73.98
41312;BME280;27061;41.648;24.568;2023-06-24T02:25:36;86269.38;;;18.61;73.97
41312;BME280;27061;41.648;24.568;2023-06-24T02:28:08;86277.09;;;18.61;73.34
41312;BME280;27061;41.648;24.568;2023-06-24T02:30:38;86250.56;;;18.37;73.79
41312;BME280;27061;41.648;24.568;2023-06-24T02:33:07;86282.88;;;18.55;73.56
41312;BME280;27061;41.648;24.568;2023-06-24T02:35:34;86286.34;;;18.57;73.59
41312;BME280;27061;41.648;24.568;2023-06-24T02:38:02;86275.16;;;18.55;72.71
41312;BME280;27061;41.648;24.568;2023-06-24T02:40:30;86248.56;;;18.34;72.63
41312;BME280;27061;41.648;24.568;2023-06-24T02:42:58;86283.56;;;18.55;73.56
41312;BME280;27061;41.648;24.568;2023-06-24T02:45:25;86287.16;;;18.54;73.56
41312;BME280;27061;41.648;24.568;2023-06-24T02:47:54;86278.94;;;18.48;73.83
41312;BME280;27061;41.648;24.568;2023-06-24T02:50:25;86253.47;;;18.33;73.56
41312;BME280;27061;41.648;24.568;2023-06-24T02:52:53;86269.81;;;18.47;73.14
41312;BME280;27061;41.648;24.568;2023-06-24T02:55:26;86288.44;;;18.57;72.51
41312;BME280;27061;41.648;24.568;2023-06-24T02:57:59;86273.38;;;18.46;72.46
41312;BME280;27061;41.648;24.568;2023-06-24T03:00:29;86260.47;;;18.34;72.89
41312;BME280;27061;41.648;24.568;2023-06-24T03:03:10;86284.84;;;18.60;71.81
41312;BME280;27061;41.648;24.568;2023-06-24T03:05:44;86292.13;;;18.51;73.20
41312;BME280;27061;41.648;24.568;2023-06-24T03:08:12;86283.78;;;18.49;74.05
41312;BME280;27061;41.648;24.568;2023-06-24T03:10:41;86271.94;;;18.47;72.57
41312;BME280;27061;41.648;24.568;2023-06-24T03:13:13;86265.38;;;18.34;73.44
41312;BME280;27061;41.648;24.568;2023-06-24T03:15:44;86277.16;;;18.38;74.26
41312;BME280;27061;41.648;24.568;2023-06-24T03:18:12;86264.78;;;18.31;74.33
41312;BME280;27061;41.648;24.568;2023-06-24T03:20:39;86284.66;;;18.44;74.83
41312;BME280;27061;41.648;24.568;2023-06-24T03:23:11;86280.97;;;18.28;75.79
41312;BME280;27061;41.648;24.568;2023-06-24T03:25:38;86287.78;;;18.34;76.41
41312;BME280;27061;41.648;24.568;2023-06-24T03:28:06;86270.09;;;18.18;76.25
41312;BME280;27061;41.648;24.568;2023-06-24T03:30:39;86287.69;;;18.38;76.13
41312;BME280;27061;41.648;24.568;2023-06-24T03:33:07;86288.41;;;18.36;76.25
41312;BME280;27061;41.648;24.568;2023-06-24T03:35:37;86241.84;;;18.04;76.76
41312;BME280;27061;41.648;24.568;2023-06-24T03:38:08;86284.75;;;18.42;76.83
41312;BME280;27061;41.648;24.568;2023-06-24T03:40:35;86207.94;;;17.91;76.46
41312;BME280;27061;41.648;24.568;2023-06-24T03:43:02;86191.00;;;17.74;77.37
41312;BME280;27061;41.648;24.568;2023-06-24T03:45:30;86247.53;;;18.22;77.37
41312;BME280;27061;41.648;24.568;2023-06-24T03:47:57;86220.69;;;18.09;77.93
41312;BME280;27061;41.648;24.568;2023-06-24T03:50:25;86201.00;;;17.90;79.22
41312;BME280;27061;41.648;24.568;2023-06-24T03:52:52;86213.16;;;18.03;78.80
41312;BME280;27061;41.648;24.568;2023-06-24T03:55:20;86234.00;;;18.29;78.60
41312;BME280;27061;41.648;24.568;2023-06-24T03:57:48;86240.25;;;18.32;78.60
41312;BME280;27061;41.648;24.568;2023-06-24T04:00:19;86268.06;;;18.58;79.02
41312;BME280;27061;41.648;24.568;2023-06-24T04:02:47;86261.81;;;18.56;79.74
41312;BME280;27061;41.648;24.568;2023-06-24T04:05:15;86268.69;;;18.61;80.53
41312;BME280;27061;41.648;24.568;2023-06-24T04:07:42;86244.13;;;18.41;80.94
41312;BME280;27061;41.648;24.568;2023-06-24T04:10:17;86169.34;;;17.93;81.30
41312;BME280;27061;41.648;24.568;2023-06-24T04:12:45;86205.38;;;18.26;81.48
41312;BME280;27061;41.648;24.568;2023-06-24T04:15:13;86262.91;;;18.86;81.48
41312;BME280;27061;41.648;24.568;2023-06-24T04:17:41;86233.56;;;18.64;81.29
41312;BME280;27061;41.648;24.568;2023-06-24T04:20:09;86224.59;;;18.59;82.31
41312;BME280;27061;41.648;24.568;2023-06-24T04:22:37;86233.41;;;18.68;82.29
41312;BME280;27061;41.648;24.568;2023-06-24T04:25:06;86194.88;;;18.46;82.99
41312;BME280;27061;41.648;24.568;2023-06-24T04:27:35;86259.09;;;18.95;84.41
41312;BME280;27061;41.648;24.568;2023-06-24T04:30:05;86253.63;;;18.91;84.70
41312;BME280;27061;41.648;24.568;2023-06-24T04:32:35;86247.00;;;18.80;86.01
41312;BME280;27061;41.648;24.568;2023-06-24T04:35:03;86070.34;;;17.60;85.84
41312;BME280;27061;41.648;24.568;2023-06-24T04:37:32;86266.91;;;19.12;87.21
41312;BME280;27061;41.648;24.568;2023-06-24T04:40:00;86248.09;;;19.08;87.34
41312;BME280;27061;41.648;24.568;2023-06-24T04:42:27;86255.31;;;19.22;87.67
41312;BME280;27061;41.648;24.568;2023-06-24T04:44:54;86234.91;;;19.05;87.85
41312;BME280;27061;41.648;24.568;2023-06-24T04:47:21;86211.75;;;18.85;84.83
41312;BME280;27061;41.648;24.568;2023-06-24T04:49:49;86218.16;;;19.02;84.95
41312;BME280;27061;41.648;24.568;2023-06-24T04:52:16;86184.78;;;18.94;84.10
41312;BME280;27061;41.648;24.568;2023-06-24T04:54:46;86198.63;;;18.98;83.73
41312;BME280;27061;41.648;24.568;2023-06-24T04:57:24;86247.50;;;19.43;84.06
41312;BME280;27061;41.648;24.568;2023-06-24T04:59:52;86254.28;;;19.50;84.38
41312;BME280;27061;41.648;24.568;2023-06-24T05:02:19;86253.06;;;19.45;85.03
41312;BME280;27061;41.648;24.568;2023-06-24T05:04:49;86240.34;;;19.48;86.88
41312;BME280;27061;41.648;24.568;2023-06-24T05:07:17;86236.59;;;19.54;88.72
41312;BME280;27061;41.648;24.568;2023-06-24T05:09:48;86097.41;;;18.48;88.94
41312;BME280;27061;41.648;24.568;2023-06-24T05:12:15;86259.34;;;19.83;88.44
41312;BME280;27061;41.648;24.568;2023-06-24T05:14:42;86271.13;;;19.88;89.06
41312;BME280;27061;41.648;24.568;2023-06-24T05:17:10;86284.22;;;20.12;86.64
41312;BME280;27061;41.648;24.568;2023-06-24T05:19:37;86230.75;;;19.79;85.46
41312;BME280;27061;41.648;24.568;2023-06-24T05:22:04;86227.25;;;19.78;84.06
41312;BME280;27061;41.648;24.568;2023-06-24T05:24:31;86228.91;;;19.90;81.60
41312;BME280;27061;41.648;24.568;2023-06-24T05:27:04;86280.47;;;20.36;81.74
41312;BME280;27061;41.648;24.568;2023-06-24T05:29:33;86276.22;;;20.37;79.45
41312;BME280;27061;41.648;24.568;2023-06-24T05:32:00;86245.66;;;20.27;79.16
41312;BME280;27061;41.648;24.568;2023-06-24T05:34:30;86262.38;;;20.31;78.63
41312;BME280;27061;41.648;24.568;2023-06-24T05:36:58;86260.63;;;20.40;77.34
41312;BME280;27061;41.648;24.568;2023-06-24T05:39:25;86217.22;;;20.19;77.56
41312;BME280;27061;41.648;24.568;2023-06-24T05:41:52;86257.13;;;20.57;78.97
41312;BME280;27061;41.648;24.568;2023-06-24T05:44:20;86266.38;;;20.72;83.63
41312;BME280;27061;41.648;24.568;2023-06-24T05:46:47;86281.38;;;20.83;84.53
41312;BME280;27061;41.648;24.568;2023-06-24T05:49:14;86319.50;;;21.13;84.60
41312;BME280;27061;41.648;24.568;2023-06-24T05:51:41;86320.63;;;21.21;84.47
41312;BME280;27061;41.648;24.568;2023-06-24T05:54:08;86296.97;;;21.13;83.01
41312;BME280;27061;41.648;24.568;2023-06-24T05:56:36;86275.06;;;20.99;83.72
41312;BME280;27061;41.648;24.568;2023-06-24T05:59:06;86298.94;;;21.34;82.19
41312;BME280;27061;41.648;24.568;2023-06-24T06:01:39;86291.59;;;21.41;80.57
41312;BME280;27061;41.648;24.568;2023-06-24T06:04:06;86298.41;;;21.46;80.82
41312;BME280;27061;41.648;24.568;2023-06-24T06:06:34;86300.41;;;21.64;79.28
41312;BME280;27061;41.648;24.568;2023-06-24T06:09:01;86300.16;;;21.70;78.62
41312;BME280;27061;41.648;24.568;2023-06-24T06:11:29;86283.50;;;21.64;75.87
41312;BME280;27061;41.648;24.568;2023-06-24T06:13:56;86289.28;;;21.77;78.46
41312;BME280;27061;41.648;24.568;2023-06-24T06:16:23;86307.19;;;22.03;78.63
41312;BME280;27061;41.648;24.568;2023-06-24T06:18:51;86261.88;;;21.75;77.74
41312;BME280;27061;41.648;24.568;2023-06-24T06:21:18;86318.97;;;22.22;77.63
41312;BME280;27061;41.648;24.568;2023-06-24T06:23:45;86260.06;;;21.84;77.21
41312;BME280;27061;41.648;24.568;2023-06-24T06:26:12;86277.94;;;22.10;75.66
41312;BME280;27061;41.648;24.568;2023-06-24T06:28:39;86315.00;;;22.46;73.02
41312;BME280;27061;41.648;24.568;2023-06-24T06:31:07;86306.09;;;22.56;73.75
41312;BME280;27061;41.648;24.568;2023-06-24T06:33:34;86299.06;;;22.55;73.48
41312;BME280;27061;41.648;24.568;2023-06-24T06:36:01;86223.00;;;22.09;74.30
41312;BME280;27061;41.648;24.568;2023-06-24T06:38:29;86278.44;;;22.59;74.25
41312;BME280;27061;41.648;24.568;2023-06-24T06:40:56;86295.88;;;22.78;72.80
41312;BME280;27061;41.648;24.568;2023-06-24T06:43:23;86255.28;;;22.56;69.67
41312;BME280;27061;41.648;24.568;2023-06-24T06:45:50;86307.91;;;23.06;70.87
41312;BME280;27061;41.648;24.568;2023-06-24T06:48:17;86233.78;;;22.63;69.65
41312;BME280;27061;41.648;24.568;2023-06-24T06:50:45;86243.91;;;22.88;70.32
41312;BME280;27061;41.648;24.568;2023-06-24T06:53:12;86269.25;;;23.17;69.77
41312;BME280;27061;41.648;24.568;2023-06-24T06:55:39;86292.38;;;23.34;71.08
41312;BME280;27061;41.648;24.568;2023-06-24T06:58:07;86305.59;;;23.53;70.66
41312;BME280;27061;41.648;24.568;2023-06-24T07:00:34;86295.56;;;23.56;69.52
41312;BME280;27061;41.648;24.568;2023-06-24T07:03:01;86297.44;;;23.74;68.22
41312;BME280;27061;41.648;24.568;2023-06-24T07:05:29;86301.41;;;23.79;69.25
41312;BME280;27061;41.648;24.568;2023-06-24T07:07:56;86284.72;;;23.88;67.89
41312;BME280;27061;41.648;24.568;2023-06-24T07:10:23;86287.56;;;24.00;67.13
41312;BME280;27061;41.648;24.568;2023-06-24T07:12:51;86251.34;;;23.90;66.54
41312;BME280;27061;41.648;24.568;2023-06-24T07:15:25;86290.72;;;24.22;65.94
41312;BME280;27061;41.648;24.568;2023-06-24T07:17:53;86276.75;;;24.18;61.86
41312;BME280;27061;41.648;24.568;2023-06-24T07:20:21;86289.72;;;24.40;60.72
41312;BME280;27061;41.648;24.568;2023-06-24T07:22:48;86245.88;;;24.14;59.26
41312;BME280;27061;41.648;24.568;2023-06-24T07:25:15;86241.44;;;24.17;60.87
41312;BME280;27061;41.648;24.568;2023-06-24T07:27:43;86289.84;;;24.63;63.80
41312;BME280;27061;41.648;24.568;2023-06-24T07:30:10;86267.78;;;24.53;62.77
41312;BME280;27061;41.648;24.568;2023-06-24T07:32:37;86268.56;;;24.64;62.49
41312;BME280;27061;41.648;24.568;2023-06-24T07:35:05;86260.41;;;24.58;60.91
41312;BME280;27061;41.648;24.568;2023-06-24T07:37:34;86265.38;;;24.70;59.22
41312;BME280;27061;41.648;24.568;2023-06-24T07:40:01;86235.72;;;24.69;60.68
41312;BME280;27061;41.648;24.568;2023-06-24T07:42:30;86253.72;;;24.89;55.91
41312;BME280;27061;41.648;24.568;2023-06-24T07:44:57;86270.59;;;25.16;56.94
41312;BME280;27061;41.648;24.568;2023-06-24T07:47:24;86269.00;;;25.20;58.06
41312;BME280;27061;41.648;24.568;2023-06-24T07:49:52;86280.56;;;25.28;59.67
41312;BME280;27061;41.648;24.568;2023-06-24T07:52:20;86267.28;;;25.25;59.03
41312;BME280;27061;41.648;24.568;2023-06-24T07:54:47;86243.41;;;25.09;59.51
41312;BME280;27061;41.648;24.568;2023-06-24T07:57:14;86284.16;;;25.39;58.28
41312;BME280;27061;41.648;24.568;2023-06-24T07:59:43;86252.81;;;25.18;56.60
41312;BME280;27061;41.648;24.568;2023-06-24T08:02:10;86280.97;;;25.45;57.04
41312;BME280;27061;41.648;24.568;2023-06-24T08:04:37;86232.31;;;25.05;57.90
41312;BME280;27061;41.648;24.568;2023-06-24T08:07:05;86261.41;;;25.29;57.64
41312;BME280;27061;41.648;24.568;2023-06-24T08:09:32;86208.66;;;24.98;57.33
41312;BME280;27061;41.648;24.568;2023-06-24T08:11:59;86203.56;;;24.88;58.58
41312;BME280;27061;41.648;24.568;2023-06-24T08:14:26;86223.22;;;25.15;56.46
41312;BME280;27061;41.648;24.568;2023-06-24T08:16:54;86296.94;;;25.64;54.65
41312;BME280;27061;41.648;24.568;2023-06-24T08:19:21;86293.63;;;25.59;54.42
41312;BME280;27061;41.648;24.568;2023-06-24T08:21:48;86245.03;;;25.42;55.74
41312;BME280;27061;41.648;24.568;2023-06-24T08:24:15;86279.78;;;25.66;57.20
41312;BME280;27061;41.648;24.568;2023-06-24T08:26:42;86292.22;;;25.83;54.47
41312;BME280;27061;41.648;24.568;2023-06-24T08:29:09;86286.97;;;25.88;52.25
41312;BME280;27061;41.648;24.568;2023-06-24T08:31:36;86248.06;;;25.50;53.62
41312;BME280;27061;41.648;24.568;2023-06-24T08:34:03;86295.81;;;25.95;51.85
41312;BME280;27061;41.648;24.568;2023-06-24T08:36:32;86265.91;;;25.85;54.72
41312;BME280;27061;41.648;24.568;2023-06-24T08:39:00;86299.13;;;26.10;55.49
41312;BME280;27061;41.648;24.568;2023-06-24T08:41:27;86286.06;;;25.92;57.07
41312;BME280;27061;41.648;24.568;2023-06-24T08:43:54;86278.03;;;25.83;57.94
41312;BME280;27061;41.648;24.568;2023-06-24T08:46:24;86307.09;;;26.07;57.91
41312;BME280;27061;41.648;24.568;2023-06-24T08:49:02;86306.53;;;26.05;57.53
41312;BME280;27061;41.648;24.568;2023-06-24T08:51:35;86282.44;;;25.93;57.89
41312;BME280;27061;41.648;24.568;2023-06-24T08:54:09;86305.88;;;26.04;58.00
41312;BME280;27061;41.648;24.568;2023-06-24T08:56:37;86293.22;;;25.91;58.28
41312;BME280;27061;41.648;24.568;2023-06-24T08:59:08;86318.19;;;26.11;57.53
41312;BME280;27061;41.648;24.568;2023-06-24T09:01:36;86295.13;;;25.94;57.63
41312;BME280;27061;41.648;24.568;2023-06-24T09:04:04;86304.06;;;25.99;56.78
41312;BME280;27061;41.648;24.568;2023-06-24T09:06:32;86317.59;;;26.21;55.12
41312;BME280;27061;41.648;24.568;2023-06-24T09:08:59;86323.50;;;26.17;57.21
41312;BME280;27061;41.648;24.568;2023-06-24T09:11:27;86299.81;;;26.10;58.33
41312;BME280;27061;41.648;24.568;2023-06-24T09:13:59;86285.16;;;25.95;57.23
41312;BME280;27061;41.648;24.568;2023-06-24T09:16:27;86292.84;;;25.97;57.98
41312;BME280;27061;41.648;24.568;2023-06-24T09:18:55;86294.25;;;26.08;58.49
41312;BME280;27061;41.648;24.568;2023-06-24T09:21:27;86274.16;;;25.89;58.57
41312;BME280;27061;41.648;24.568;2023-06-24T09:23:58;86308.13;;;26.38;53.34
41312;BME280;27061;41.648;24.568;2023-06-24T09:26:27;86264.16;;;26.13;54.01
41312;BME280;27061;41.648;24.568;2023-06-24T09:28:57;86261.16;;;26.05;54.73
41312;BME280;27061;41.648;24.568;2023-06-24T09:31:24;86265.34;;;26.29;54.24
41312;BME280;27061;41.648;24.568;2023-06-24T09:33:51;86297.72;;;26.68;55.07
41312;BME280;27061;41.648;24.568;2023-06-24T09:36:19;86270.75;;;26.56;54.75
41312;BME280;27061;41.648;24.568;2023-06-24T09:38:46;86267.53;;;26.63;53.59
41312;BME280;27061;41.648;24.568;2023-06-24T09:41:14;86282.97;;;26.66;54.02
41312;BME280;27061;41.648;24.568;2023-06-24T09:43:43;86282.75;;;26.80;54.61
41312;BME280;27061;41.648;24.568;2023-06-24T09:46:14;86246.25;;;26.51;54.50
41312;BME280;27061;41.648;24.568;2023-06-24T09:48:43;86126.56;;;25.68;52.49
41312;BME280;27061;41.648;24.568;2023-06-24T09:51:12;86220.00;;;26.40;53.73
41312;BME280;27061;41.648;24.568;2023-06-24T09:53:39;86254.97;;;26.70;53.09
41312;BME280;27061;41.648;24.568;2023-06-24T09:56:08;86228.38;;;26.42;53.63
41312;BME280;27061;41.648;24.568;2023-06-24T09:58:40;86144.41;;;26.00;53.55
41312;BME280;27061;41.648;24.568;2023-06-24T10:01:08;86273.66;;;27.01;53.72
41312;BME280;27061;41.648;24.568;2023-06-24T10:03:37;86133.59;;;25.92;53.58
41312;BME280;27061;41.648;24.568;2023-06-24T10:06:06;86217.81;;;26.74;52.84
41312;BME280;27061;41.648;24.568;2023-06-24T10:08:33;86280.06;;;27.33;53.52
41312;BME280;27061;41.648;24.568;2023-06-24T10:11:03;86259.75;;;27.29;51.98
41312;BME280;27061;41.648;24.568;2023-06-24T10:13:31;86211.09;;;26.90;53.38
41312;BME280;27061;41.648;24.568;2023-06-24T10:15:58;86274.25;;;27.46;51.47
41312;BME280;27061;41.648;24.568;2023-06-24T10:18:35;86286.22;;;27.59;50.40
41312;BME280;27061;41.648;24.568;2023-06-24T10:21:04;86226.72;;;27.34;54.38
41312;BME280;27061;41.648;24.568;2023-06-24T10:23:51;86263.34;;;27.72;50.32
41312;BME280;27061;41.648;24.568;2023-06-24T10:42:39;86274.16;;;28.23;47.04
41312;BME280;27061;41.648;24.568;2023-06-24T10:47:37;86150.53;;;27.26;44.02
41312;BME280;27061;41.648;24.568;2023-06-24T10:50:06;86167.84;;;27.43;43.52
41312;BME280;27061;41.648;24.568;2023-06-24T10:52:39;86142.00;;;27.26;42.85
41312;BME280;27061;41.648;24.568;2023-06-24T10:55:07;86246.09;;;28.06;43.94
41312;BME280;27061;41.648;24.568;2023-06-24T10:57:34;86099.09;;;26.87;45.55
41312;BME280;27061;41.648;24.568;2023-06-24T11:00:03;86147.81;;;27.34;46.19
41312;BME280;27061;41.648;24.568;2023-06-24T11:02:31;86097.50;;;27.01;46.06
41312;BME280;27061;41.648;24.568;2023-06-24T11:05:00;86229.34;;;27.70;44.96
41312;BME280;27061;41.648;24.568;2023-06-24T11:07:30;86233.41;;;27.73;46.65
41312;BME280;27061;41.648;24.568;2023-06-24T11:10:09;86230.69;;;27.82;47.25
41312;BME280;27061;41.648;24.568;2023-06-24T11:12:40;86149.97;;;27.34;47.66
41312;BME280;27061;41.648;24.568;2023-06-24T11:15:11;86212.00;;;27.85;48.39
41312;BME280;27061;41.648;24.568;2023-06-24T11:17:40;86213.19;;;27.88;46.26
41312;BME280;27061;41.648;24.568;2023-06-24T11:20:13;86220.91;;;28.00;45.57
41312;BME280;27061;41.648;24.568;2023-06-24T11:22:42;86038.50;;;26.70;47.76
41312;BME280;27061;41.648;24.568;2023-06-24T11:25:17;86206.81;;;27.98;48.34
41312;BME280;27061;41.648;24.568;2023-06-24T11:27:45;86168.22;;;27.80;47.03
41312;BME280;27061;41.648;24.568;2023-06-24T11:30:13;86169.84;;;27.77;47.34
41312;BME280;27061;41.648;24.568;2023-06-24T11:32:42;86209.22;;;28.15;46.58
41312;BME280;27061;41.648;24.568;2023-06-24T11:35:12;86163.84;;;28.02;49.17
41312;BME280;27061;41.648;24.568;2023-06-24T11:37:43;86209.00;;;28.49;45.93
41312;BME280;27061;41.648;24.568;2023-06-24T11:40:16;86197.03;;;28.27;42.86
41312;BME280;27061;41.648;24.568;2023-06-24T11:42:45;86196.69;;;28.41;45.79
41312;BME280;27061;41.648;24.568;2023-06-24T11:45:20;86171.41;;;28.27;46.16
41312;BME280;27061;41.648;24.568;2023-06-24T11:47:47;86163.78;;;28.34;41.70
41312;BME280;27061;41.648;24.568;2023-06-24T11:50:26;86109.72;;;27.83;45.01
41312;BME280;27061;41.648;24.568;2023-06-24T11:52:54;86192.41;;;28.62;45.79
41312;BME280;27061;41.648;24.568;2023-06-24T11:55:23;86194.97;;;28.66;43.41
41312;BME280;27061;41.648;24.568;2023-06-24T11:57:58;86196.97;;;28.78;44.62
41312;BME280;27061;41.648;24.568;2023-06-24T12:03:01;86207.19;;;28.94;46.67
41312;BME280;27061;41.648;24.568;2023-06-24T12:05:29;86188.00;;;28.73;43.05
41312;BME280;27061;41.648;24.568;2023-06-24T12:08:01;86175.78;;;28.75;43.91
41312;BME280;27061;41.648;24.568;2023-06-24T12:10:30;86139.31;;;28.48;42.07
41312;BME280;27061;41.648;24.568;2023-06-24T12:13:04;86176.06;;;28.82;43.98
41312;BME280;27061;41.648;24.568;2023-06-24T12:15:37;86115.44;;;28.23;41.85
41312;BME280;27061;41.648;24.568;2023-06-24T12:18:05;86168.56;;;28.57;43.67
41312;BME280;27061;41.648;24.568;2023-06-24T12:20:32;86146.38;;;28.49;42.82
41312;BME280;27061;41.648;24.568;2023-06-24T12:23:04;86158.91;;;28.32;44.21
41312;BME280;27061;41.648;24.568;2023-06-24T12:25:31;86118.72;;;28.17;45.88
41312;BME280;27061;41.648;24.568;2023-06-24T12:27:58;86139.09;;;28.30;45.39
41312;BME280;27061;41.648;24.568;2023-06-24T12:30:29;86145.44;;;28.41;45.75
41312;BME280;27061;41.648;24.568;2023-06-24T12:32:56;86156.78;;;28.52;44.57
41312;BME280;27061;41.648;24.568;2023-06-24T12:35:24;86143.84;;;28.64;45.98
41312;BME280;27061;41.648;24.568;2023-06-24T12:37:52;86132.22;;;28.57;42.44
41312;BME280;27061;41.648;24.568;2023-06-24T12:40:19;86115.03;;;28.49;42.28
41312;BME280;27061;41.648;24.568;2023-06-24T12:42:47;86108.31;;;28.63;43.32
41312;BME280;27061;41.648;24.568;2023-06-24T12:45:14;86093.38;;;28.43;42.84
41312;BME280;27061;41.648;24.568;2023-06-24T12:47:41;86104.28;;;28.60;41.41
41312;BME280;27061;41.648;24.568;2023-06-24T12:50:09;86134.78;;;28.91;41.30
41312;BME280;27061;41.648;24.568;2023-06-24T12:52:36;86141.81;;;28.92;44.24
41312;BME280;27061;41.648;24.568;2023-06-24T12:55:05;86097.13;;;28.80;45.97
41312;BME280;27061;41.648;24.568;2023-06-24T12:57:35;86071.13;;;28.65;43.85
41312;BME280;27061;41.648;24.568;2023-06-24T13:00:04;86056.44;;;28.52;46.73
41312;BME280;27061;41.648;24.568;2023-06-24T13:02:33;86105.97;;;28.95;47.76
41312;BME280;27061;41.648;24.568;2023-06-24T13:05:02;86124.25;;;29.18;45.57
41312;BME280;27061;41.648;24.568;2023-06-24T13:07:31;86118.56;;;29.18;45.50
41312;BME280;27061;41.648;24.568;2023-06-24T13:09:58;86125.38;;;29.31;43.26
41312;BME280;27061;41.648;24.568;2023-06-24T13:12:26;86142.13;;;29.65;41.20
41312;BME280;27061;41.648;24.568;2023-06-24T13:14:53;86113.41;;;29.39;44.27
41312;BME280;27061;41.648;24.568;2023-06-24T13:17:21;86136.41;;;29.65;41.22
41312;BME280;27061;41.648;24.568;2023-06-24T13:19:48;86096.44;;;29.37;41.55
41312;BME280;27061;41.648;24.568;2023-06-24T13:22:15;86131.59;;;29.72;42.54
41312;BME280;27061;41.648;24.568;2023-06-24T13:24:42;86110.22;;;29.63;40.94
41312;BME280;27061;41.648;24.568;2023-06-24T13:27:10;85974.16;;;28.48;41.96
41312;BME280;27061;41.648;24.568;2023-06-24T13:29:40;86101.59;;;29.54;42.46
41312;BME280;27061;41.648;24.568;2023-06-24T13:32:08;86106.19;;;29.68;43.94